Time;durP1;ratioP1;P1;durP2;ratioP2;P2;SDS_P1;SDS_P2;PMS_P1;PMS_P2;Temp;Humidity;BMP_temperature;BMP_pressure;BME280_temperature;BME280_humidity;BME280_pressure;Samples;Min_cycle;Max_cycle;Signal;HPM_P1;HPM_P2
2020/12/14 00:03:02;;;;;;;25.02;13.30;;;;;;;;;;4993508;28;20072;-87
2020/12/14 00:06:06;;;;;;;26.92;13.35;;;;;;;;;;4979042;28;20046;-86
2020/12/14 00:09:10;;;;;;;23.33;12.52;;;;;;;;;;4993948;28;20047;-87
2020/12/14 00:12:00;;;;;;;22.67;12.45;;;;;;;;;;4981192;28;20046;-87
2020/12/14 00:15:13;;;;;;;22.50;12.45;;;;;;;;;;4978835;28;20069;-86
2020/12/14 00:18:03;;;;;;;24.17;12.75;;;;;;;;;;4995951;28;20042;-86
2020/12/14 00:20:51;;;;;;;26.40;14.00;;;;;;;;;;4980711;28;20097;-88
2020/12/14 00:23:28;;;;;;;26.50;13.38;;;;;;;;;;4994664;28;20418;-87
2020/12/14 00:26:52;;;;;;;23.25;12.77;;;;;;;;;;4965655;28;20058;-86
2020/12/14 00:29:46;;;;;;;24.75;12.98;;;;;;;;;;4980058;28;20518;-88
2020/12/14 00:32:58;;;;;;;;;;;;;;;;;;;;;
2020/12/14 00:38:54;;;;;;;21.98;12.10;;;;;;;;;;4974716;28;20065;-85
2020/12/14 00:41:50;;;;;;;21.30;11.57;;;;;;;;;;4962062;28;20053;-85
2020/12/14 00:45:00;;;;;;;20.63;10.95;;;;;;;;;;4971683;28;20046;-88
2020/12/14 00:47:52;;;;;;;23.77;11.80;;;;;;;;;;4993154;28;20066;-85
2020/12/14 00:50:45;;;;;;;21.13;11.02;;;;;;;;;;4977208;28;20066;-86
2020/12/14 01:00:45;;;;;;;27.17;14.35;;;;;;;;;;4933892;28;20051;-87
2020/12/14 01:03:52;;;;;;;26.23;14.15;;;;;;;;;;4952553;29;20085;-85
2020/12/14 01:06:42;;;;;;;26.70;14.10;;;;;;;;;;4963558;28;20547;-86
2020/12/14 01:09:32;;;;;;;25.00;13.93;;;;;;;;;;4935397;29;20043;-86
2020/12/14 01:13:01;;;;;;;;;;;;;;;;;;;;;
2020/12/14 01:16:12;;;;;;;24.48;13.88;;;;;;;;;;4945194;29;20055;-85
2020/12/14 01:19:16;;;;;;;;;;;;;;;;;;;;;
2020/12/14 01:22:13;;;;;;;21.75;13.15;;;;;;;;;;4928582;28;20079;-86
2020/12/14 01:25:09;;;;;;;24.05;14.02;;;;;;;;;;4937781;29;20138;-85
2020/12/14 01:28:39;;;;;;;23.70;12.80;;;;;;;;;;4953891;29;20411;-85
2020/12/14 01:32:29;;;;;;;22.48;11.70;;;;;;;;;;4858514;29;20057;-86
2020/12/14 01:35:50;;;;;;;24.23;11.93;;;;;;;;;;4863604;29;20049;-87
2020/12/14 01:38:56;;;;;;;19.13;11.30;;;;;;;;;;4909663;29;20074;-85
2020/12/14 01:42:01;;;;;;;23.20;11.70;;;;;;;;;;4905927;29;20104;-88
2020/12/14 01:48:13;;;;;;;23.35;12.23;;;;;;;;;;4912720;29;20130;-86
2020/12/14 01:51:00;;;;;;;18.52;10.98;;;;;;;;;;4881187;29;20051;-86
2020/12/14 01:54:36;;;;;;;20.35;10.55;;;;;;;;;;4857887;29;20055;-88
2020/12/14 01:57:38;;;;;;;19.30;11.30;;;;;;;;;;4819303;29;20070;-88
2020/12/14 02:00:34;;;;;;;20.17;11.15;;;;;;;;;;4859132;29;20053;-86
2020/12/14 02:03:38;;;;;;;21.08;11.57;;;;;;;;;;4928157;29;20542;-89
2020/12/14 02:06:33;;;;;;;21.92;11.70;;;;;;;;;;4931076;29;20106;-87
2020/12/14 02:09:46;;;;;;;19.60;11.82;;;;;;;;;;4917764;29;20040;-88
2020/12/14 02:16:05;;;;;;;23.05;12.35;;;;;;;;;;4882481;29;20049;-87
2020/12/14 02:18:59;;;;;;;25.58;13.43;;;;;;;;;;4917299;29;20091;-87
2020/12/14 02:25:43;;;;;;;26.15;13.27;;;;;;;;;;4895831;29;20076;-87
2020/12/14 02:28:50;;;;;;;28.40;14.52;;;;;;;;;;4891306;29;20035;-87
2020/12/14 02:31:43;;;;;;;29.10;14.48;;;;;;;;;;4924999;29;20370;-87
2020/12/14 02:34:39;;;;;;;27.77;14.65;;;;;;;;;;4898988;29;20126;-87
2020/12/14 02:37:53;;;;;;;;;;;;;;;;;;;;;
2020/12/14 02:41:00;;;;;;;20.40;10.82;;;;;;;;;;4933144;29;20562;-87
2020/12/14 02:43:56;;;;;;;22.25;11.18;;;;;;;;;;4934528;29;20078;-87
2020/12/14 02:46:48;;;;;;;17.92;9.13;;;;;;;;;;4954568;29;20046;-87
2020/12/14 02:50:04;;;;;;;;;;;;;;;;;;;;;
2020/12/14 02:52:52;;;;;;;19.40;11.07;;;;;;;;;;4965873;28;20046;-87
2020/12/14 02:55:54;;;;;;;22.10;12.05;;;;;;;;;;4996174;28;20053;-87
2020/12/14 02:58:59;;;;;;;;;;;;;;;;;;;;;
2020/12/14 03:02:13;;;;;;;19.55;10.02;;;;;;;;;;5005132;28;20039;-90
2020/12/14 03:05:32;;;;;;;20.40;9.40;;;;;;;;;;4990206;28;20038;-90
2020/12/14 03:08:58;;;;;;;14.10;7.68;;;;;;;;;;4997615;28;20521;-87
2020/12/14 03:12:30;;;;;;;11.15;6.53;;;;;;;;;;4995838;28;20398;-89
2020/12/14 03:15:53;;;;;;;12.52;7.50;;;;;;;;;;4929268;28;20142;-87
2020/12/14 03:18:42;;;;;;;12.57;7.73;;;;;;;;;;4991529;28;20137;-87
2020/12/14 03:21:59;;;;;;;11.85;7.50;;;;;;;;;;4996476;28;20034;-87
2020/12/14 03:28:23;;;;;;;10.18;6.80;;;;;;;;;;4941134;29;20043;-87
2020/12/14 03:31:16;;;;;;;10.43;6.95;;;;;;;;;;4942347;29;20356;-87
2020/12/14 03:34:54;;;;;;;10.00;6.63;;;;;;;;;;4941439;29;20126;-90
2020/12/14 03:41:18;;;;;;;9.02;6.07;;;;;;;;;;4940338;29;20624;-90
2020/12/14 03:47:55;;;;;;;8.18;5.70;;;;;;;;;;5020599;28;20060;-87
2020/12/14 03:50:47;;;;;;;8.65;5.82;;;;;;;;;;5004884;28;20073;-88
2020/12/14 03:53:14;;;;;;;7.63;5.22;;;;;;;;;;4998385;28;20050;-88
2020/12/14 03:56:06;;;;;;;8.88;5.25;;;;;;;;;;4986211;28;20042;-88
2020/12/14 03:58:47;;;;;;;8.75;5.40;;;;;;;;;;4983409;28;20175;-88
2020/12/14 04:01:55;;;;;;;10.02;6.47;;;;;;;;;;4996518;28;20043;-88
2020/12/14 04:04:55;;;;;;;12.05;7.15;;;;;;;;;;4990505;28;20042;-90
2020/12/14 04:08:01;;;;;;;10.93;7.05;;;;;;;;;;4996384;28;20141;-89
2020/12/14 04:11:31;;;;;;;11.95;7.30;;;;;;;;;;4992715;28;20042;-87
2020/12/14 04:14:42;;;;;;;12.10;7.40;;;;;;;;;;4983300;28;20057;-90
2020/12/14 04:18:03;;;;;;;14.73;7.57;;;;;;;;;;4980433;28;20046;-88
2020/12/14 04:27:59;;;;;;;11.68;7.70;;;;;;;;;;4984222;28;20142;-88
2020/12/14 04:31:58;;;;;;;11.80;6.88;;;;;;;;;;4995841;28;20346;-88
2020/12/14 04:35:20;;;;;;;12.07;6.97;;;;;;;;;;4916317;29;20072;-89
2020/12/14 04:38:30;;;;;;;12.70;6.93;;;;;;;;;;4880006;29;20055;-88
2020/12/14 04:42:03;;;;;;;11.45;6.93;;;;;;;;;;4909065;29;20083;-88
2020/12/14 04:45:32;;;;;;;11.55;7.03;;;;;;;;;;4916491;29;20055;-88
2020/12/14 04:52:16;;;;;;;11.73;6.75;;;;;;;;;;4923543;29;20054;-88
2020/12/14 04:54:56;;;;;;;11.55;6.82;;;;;;;;;;4938036;29;20044;-88
2020/12/14 04:58:10;;;;;;;11.85;6.47;;;;;;;;;;4936256;29;20051;-88
2020/12/14 05:01:21;;;;;;;11.70;6.70;;;;;;;;;;4945981;28;20040;-88
2020/12/14 05:04:02;;;;;;;9.95;6.28;;;;;;;;;;4909141;28;20074;-88
2020/12/14 05:07:07;;;;;;;8.68;4.78;;;;;;;;;;4957554;28;20489;-88
2020/12/14 05:10:08;;;;;;;;;;;;;;;;;;;;;
2020/12/14 05:12:59;;;;;;;14.07;7.93;;;;;;;;;;4959889;28;20116;-88
2020/12/14 05:19:55;;;;;;;13.95;8.25;;;;;;;;;;4912179;28;20131;-88
2020/12/14 05:34:12;;;;;;;12.95;7.93;;;;;;;;;;4854124;29;20137;-90
2020/12/14 05:37:22;;;;;;;12.82;7.22;;;;;;;;;;4814857;29;20065;-88
2020/12/14 05:44:56;;;;;;;11.70;6.80;;;;;;;;;;4872572;29;20049;-88
2020/12/14 05:48:26;;;;;;;12.15;6.88;;;;;;;;;;4866592;29;20037;-88
2020/12/14 05:51:36;;;;;;;14.52;7.38;;;;;;;;;;4869338;29;20547;-88
2020/12/14 06:02:29;;;;;;;11.27;6.75;;;;;;;;;;4823318;29;20148;-88
2020/12/14 06:09:16;;;;;;;12.40;6.07;;;;;;;;;;4829668;29;20060;-88
2020/12/14 06:12:55;;;;;;;;;;;;;;;;;;;;;
2020/12/14 06:20:28;;;;;;;11.02;5.97;;;;;;;;;;4918033;29;20512;-87
2020/12/14 06:23:54;;;;;;;;;;;;;;;;;;4898753;29;20031;-89
2020/12/14 06:38:25;;;;;;;11.07;5.82;;;;;;;;;;4972633;28;20175;-88
2020/12/14 06:41:59;;;;;;;10.13;4.37;;;;;;;;;;4984631;28;20041;-88
2020/12/14 06:45:41;;;;;;;15.48;6.40;;;;;;;;;;4921629;29;20328;-88
2020/12/14 06:52:27;;;;;;;12.35;6.65;;;;;;;;;;4879052;29;20046;-84
2020/12/14 06:56:17;;;;;;;14.20;7.55;;;;;;;;;;4909569;29;20056;-87
2020/12/14 06:58:52;;;;;;;13.00;6.28;;;;;;;;;;4918723;29;20115;-86
2020/12/14 07:09:20;;;;;;;12.83;7.30;;;;;;;;;;4912901;29;20125;-86
2020/12/14 07:12:19;;;;;;;11.60;6.50;;;;;;;;;;4946059;28;20057;-86
2020/12/14 07:18:45;;;;;;;15.70;6.50;;;;;;;;;;4954389;28;20106;-86
2020/12/14 07:21:55;;;;;;;11.23;5.95;;;;;;;;;;4952333;29;20517;-87
2020/12/14 07:24:35;;;;;;;12.05;6.80;;;;;;;;;;4928255;29;20174;-86
2020/12/14 07:27:01;;;;;;;10.98;6.40;;;;;;;;;;4931845;29;20122;-86
2020/12/14 07:29:31;;;;;;;9.82;5.85;;;;;;;;;;4971256;28;20137;-83
2020/12/14 07:32:04;;;;;;;10.35;5.78;;;;;;;;;;4955357;29;20047;-87
2020/12/14 07:34:41;;;;;;;11.35;6.68;;;;;;;;;;4966553;28;20076;-89
2020/12/14 07:37:19;;;;;;;18.10;9.65;;;;;;;;;;4963932;28;20043;-87
2020/12/14 07:39:50;;;;;;;15.30;8.23;;;;;;;;;;4964394;28;20136;-88
2020/12/14 07:42:25;;;;;;;21.38;9.73;;;;;;;;;;4935894;29;20043;-86
2020/12/14 07:45:08;;;;;;;23.23;11.45;;;;;;;;;;4952195;29;20036;-87
2020/12/14 07:47:37;;;;;;;23.70;11.27;;;;;;;;;;4938356;29;20451;-87
2020/12/14 07:50:14;;;;;;;23.50;11.00;;;;;;;;;;4927935;29;20500;-85
2020/12/14 07:52:43;;;;;;;21.73;10.45;;;;;;;;;;4938350;29;20065;-87
2020/12/14 07:55:12;;;;;;;19.95;9.80;;;;;;;;;;4996873;28;20085;-87
2020/12/14 07:57:39;;;;;;;17.85;9.60;;;;;;;;;;4999307;28;20046;-87
2020/12/14 08:00:37;;;;;;;21.63;9.52;;;;;;;;;;5001224;28;20065;-87
2020/12/14 08:03:05;;;;;;;20.42;9.98;;;;;;;;;;4968843;28;20045;-88
2020/12/14 08:05:39;;;;;;;18.35;9.88;;;;;;;;;;5000984;28;20038;-90
2020/12/14 08:08:08;;;;;;;21.55;10.20;;;;;;;;;;5002904;28;20053;-91
2020/12/14 08:10:38;;;;;;;17.40;9.73;;;;;;;;;;4978090;28;20050;-88
2020/12/14 08:13:10;;;;;;;20.23;9.77;;;;;;;;;;4983285;28;20105;-86
2020/12/14 08:15:41;;;;;;;18.70;9.90;;;;;;;;;;4999041;28;20050;-85
2020/12/14 08:18:08;;;;;;;18.08;8.75;;;;;;;;;;5001156;28;20062;-85
2020/12/14 08:20:39;;;;;;;21.63;8.88;;;;;;;;;;4998967;28;20077;-86
2020/12/14 08:23:18;;;;;;;20.38;10.20;;;;;;;;;;4984680;28;20046;-87
2020/12/14 08:26:07;;;;;;;;;;;;;;;;;;;;;
2020/12/14 08:28:40;;;;;;;20.58;9.35;;;;;;;;;;5002478;28;20042;-83
2020/12/14 08:31:06;;;;;;;18.92;8.55;;;;;;;;;;4996532;28;20050;-86
2020/12/14 08:33:33;;;;;;;19.42;8.35;;;;;;;;;;4996821;28;20086;-86
2020/12/14 08:36:08;;;;;;;21.13;9.30;;;;;;;;;;4997339;28;20069;-85
2020/12/14 08:38:34;;;;;;;18.70;8.57;;;;;;;;;;4998086;28;20054;-85
2020/12/14 08:41:02;;;;;;;21.70;8.50;;;;;;;;;;4999064;28;20050;-87
2020/12/14 08:43:31;;;;;;;22.58;8.65;;;;;;;;;;5002223;28;20046;-86
2020/12/14 08:46:05;;;;;;;17.90;8.15;;;;;;;;;;4998607;28;20106;-85
2020/12/14 08:48:33;;;;;;;19.58;8.25;;;;;;;;;;4983119;28;20061;-87
2020/12/14 08:51:26;;;;;;;22.25;8.90;;;;;;;;;;4982218;28;20486;-86
2020/12/14 08:53:53;;;;;;;16.40;7.53;;;;;;;;;;4961474;28;20050;-84
2020/12/14 08:56:21;;;;;;;16.40;7.75;;;;;;;;;;4994312;28;20077;-86
2020/12/14 08:58:59;;;;;;;16.77;7.70;;;;;;;;;;4980476;28;20054;-84
2020/12/14 09:01:30;;;;;;;16.00;7.63;;;;;;;;;;4978821;28;20399;-86
2020/12/14 09:04:01;;;;;;;19.48;7.75;;;;;;;;;;4978943;28;20046;-86
2020/12/14 09:06:27;;;;;;;17.65;7.10;;;;;;;;;;4994349;28;20039;-86
2020/12/14 09:09:06;;;;;;;12.55;6.50;;;;;;;;;;4957652;28;20110;-84
2020/12/14 09:11:49;;;;;;;13.43;5.88;;;;;;;;;;4974624;28;20069;-87
2020/12/14 09:14:40;;;;;;;11.73;6.00;;;;;;;;;;4976287;28;20550;-85
2020/12/14 09:17:15;;;;;;;13.15;5.15;;;;;;;;;;4976397;28;20080;-86
2020/12/14 09:19:57;;;;;;;13.68;5.45;;;;;;;;;;4960380;28;20047;-86
2020/12/14 09:22:45;;;;;;;8.60;4.67;;;;;;;;;;4976745;28;20047;-86
2020/12/14 09:25:15;;;;;;;13.23;5.10;;;;;;;;;;4967211;28;20047;-86
2020/12/14 09:27:43;;;;;;;15.98;5.70;;;;;;;;;;4983693;28;20105;-86
2020/12/14 09:30:11;;;;;;;11.70;5.50;;;;;;;;;;4985619;28;20039;-87
2020/12/14 09:32:38;;;;;;;11.75;5.22;;;;;;;;;;5005911;28;20054;-88
2020/12/14 09:35:20;;;;;;;9.48;5.20;;;;;;;;;;4989782;28;20049;-86
2020/12/14 09:37:50;;;;;;;12.80;5.28;;;;;;;;;;4989511;28;20061;-87
2020/12/14 09:40:16;;;;;;;13.45;5.22;;;;;;;;;;4990301;28;20046;-87
2020/12/14 09:42:43;;;;;;;11.63;4.47;;;;;;;;;;5004556;28;20046;-88
2020/12/14 09:45:10;;;;;;;8.07;4.13;;;;;;;;;;5003328;28;20046;-86
2020/12/14 09:47:40;;;;;;;5.05;3.25;;;;;;;;;;5004822;28;20066;-87
2020/12/14 09:50:07;;;;;;;6.40;3.10;;;;;;;;;;4973815;28;20073;-86
2020/12/14 09:52:34;;;;;;;5.47;2.70;;;;;;;;;;4993163;28;20046;-87
2020/12/14 09:55:00;;;;;;;3.95;2.40;;;;;;;;;;4987869;28;20466;-86
2020/12/14 09:57:36;;;;;;;3.47;2.25;;;;;;;;;;4971879;28;20054;-86
2020/12/14 10:00:09;;;;;;;3.47;2.20;;;;;;;;;;5004798;28;20498;-87
2020/12/14 10:02:42;;;;;;;3.78;2.17;;;;;;;;;;5004110;28;20046;-86
2020/12/14 10:05:09;;;;;;;3.83;2.00;;;;;;;;;;4987480;28;20054;-86
2020/12/14 10:07:41;;;;;;;4.18;2.10;;;;;;;;;;5003217;28;20134;-86
2020/12/14 10:10:11;;;;;;;4.68;2.25;;;;;;;;;;5019790;28;20043;-86
2020/12/14 10:12:40;;;;;;;3.63;2.13;;;;;;;;;;5005822;28;20050;-86
2020/12/14 10:15:09;;;;;;;2.90;1.85;;;;;;;;;;5006428;28;20050;-86
2020/12/14 10:17:43;;;;;;;5.05;2.42;;;;;;;;;;5006436;28;20034;-86
2020/12/14 10:20:13;;;;;;;5.25;2.50;;;;;;;;;;5004865;28;20045;-86
2020/12/14 10:22:48;;;;;;;3.95;2.35;;;;;;;;;;4987109;28;20049;-87
2020/12/14 10:25:17;;;;;;;3.65;2.50;;;;;;;;;;5018561;28;20125;-88
2020/12/14 10:27:47;;;;;;;3.58;2.13;;;;;;;;;;5002865;28;20517;-86
2020/12/14 10:30:14;;;;;;;5.57;2.58;;;;;;;;;;5004549;28;20481;-86
2020/12/14 10:32:55;;;;;;;6.75;2.97;;;;;;;;;;5012386;28;20494;-85
2020/12/14 10:35:37;;;;;;;4.85;2.95;;;;;;;;;;4948363;28;20070;-85
2020/12/14 10:38:31;;;;;;;6.78;4.03;;;;;;;;;;4966877;28;20054;-86
2020/12/14 10:41:17;;;;;;;5.28;3.60;;;;;;;;;;4967977;28;20050;-86
2020/12/14 10:43:49;;;;;;;9.53;5.10;;;;;;;;;;4973884;28;20050;-86
2020/12/14 10:46:17;;;;;;;2.53;1.65;;;;;;;;;;4960788;28;20047;-85
2020/12/14 10:48:43;;;;;;;2.88;2.00;;;;;;;;;;4962323;28;20282;-84
2020/12/14 10:51:09;;;;;;;2.75;1.60;;;;;;;;;;4977902;28;20039;-85
2020/12/14 10:53:37;;;;;;;4.03;2.22;;;;;;;;;;4961658;28;20043;-86
2020/12/14 10:56:05;;;;;;;3.33;1.90;;;;;;;;;;4963464;28;20054;-85
2020/12/14 10:58:31;;;;;;;2.33;1.63;;;;;;;;;;4978558;28;20518;-86
2020/12/14 11:00:57;;;;;;;2.45;1.63;;;;;;;;;;4980883;28;20518;-85
2020/12/14 11:03:37;;;;;;;5.72;1.70;;;;;;;;;;4981352;28;20107;-87
2020/12/14 11:06:04;;;;;;;2.28;1.55;;;;;;;;;;4980091;28;20049;-84
2020/12/14 11:08:50;;;;;;;2.88;1.70;;;;;;;;;;4981532;28;20039;-84
2020/12/14 11:11:17;;;;;;;4.72;1.80;;;;;;;;;;4981784;28;20133;-84
2020/12/14 11:13:49;;;;;;;2.22;1.42;;;;;;;;;;4979204;28;20054;-84
2020/12/14 11:16:16;;;;;;;2.75;1.50;;;;;;;;;;4981634;28;20054;-83
2020/12/14 11:18:48;;;;;;;2.42;1.60;;;;;;;;;;4982246;28;20077;-84
2020/12/14 11:21:32;;;;;;;;;;;;;;;;;;4981963;28;20089;-84
2020/12/14 11:23:58;;;;;;;3.17;1.85;;;;;;;;;;4997828;28;19925;-85
2020/12/14 11:26:25;;;;;;;3.55;1.50;;;;;;;;;;4981353;28;20048;-85
2020/12/14 11:28:51;;;;;;;2.35;1.45;;;;;;;;;;4965896;28;20051;-85
2020/12/14 11:31:18;;;;;;;2.50;1.00;;;;;;;;;;4998739;28;20062;-84
2020/12/14 11:33:54;;;;;;;4.32;2.15;;;;;;;;;;4975788;28;20043;-87
2020/12/14 11:36:31;;;;;;;3.30;1.55;;;;;;;;;;4965997;28;20560;-85
2020/12/14 11:38:58;;;;;;;5.07;1.90;;;;;;;;;;4991526;28;20038;-86
2020/12/14 11:41:25;;;;;;;3.50;2.08;;;;;;;;;;4975890;28;20053;-82
2020/12/14 11:43:51;;;;;;;3.83;1.67;;;;;;;;;;4994098;28;20043;-85
2020/12/14 11:46:19;;;;;;;3.40;1.40;;;;;;;;;;4992796;28;20052;-86
2020/12/14 11:48:46;;;;;;;2.25;1.25;;;;;;;;;;4993800;28;20046;-85
2020/12/14 11:51:12;;;;;;;2.13;1.08;;;;;;;;;;4993424;28;20065;-85
2020/12/14 11:53:40;;;;;;;3.92;1.67;;;;;;;;;;4982535;28;20050;-86
2020/12/14 11:56:06;;;;;;;2.05;1.52;;;;;;;;;;4987574;28;20042;-86
2020/12/14 11:58:34;;;;;;;1.75;1.20;;;;;;;;;;5007385;28;20060;-87
2020/12/14 12:01:01;;;;;;;2.72;1.15;;;;;;;;;;5011934;28;20046;-87
2020/12/14 12:03:27;;;;;;;3.78;1.30;;;;;;;;;;4997005;28;20042;-86
2020/12/14 12:05:56;;;;;;;1.80;1.30;;;;;;;;;;4979855;28;20300;-86
2020/12/14 12:08:24;;;;;;;1.88;1.20;;;;;;;;;;4996015;28;20080;-86
2020/12/14 12:10:50;;;;;;;2.95;1.30;;;;;;;;;;4996398;28;20047;-88
2020/12/14 12:13:16;;;;;;;5.05;1.23;;;;;;;;;;4979482;28;20069;-87
2020/12/14 12:15:45;;;;;;;2.00;1.00;;;;;;;;;;4997076;28;20046;-87
2020/12/14 12:18:11;;;;;;;3.15;1.30;;;;;;;;;;4998054;28;20046;-86
2020/12/14 12:20:38;;;;;;;3.33;1.70;;;;;;;;;;4998454;28;20497;-84
2020/12/14 12:23:05;;;;;;;3.17;1.40;;;;;;;;;;4997581;28;20069;-86
2020/12/14 12:25:33;;;;;;;2.72;1.48;;;;;;;;;;4998853;28;20549;-87
2020/12/14 12:27:59;;;;;;;2.95;1.35;;;;;;;;;;4983666;28;20421;-88
2020/12/14 12:30:26;;;;;;;4.15;1.33;;;;;;;;;;4971154;28;20286;-88
2020/12/14 12:32:54;;;;;;;2.47;1.33;;;;;;;;;;5001260;28;20130;-85
2020/12/14 12:35:21;;;;;;;1.98;1.38;;;;;;;;;;5005742;28;20047;-84
2020/12/14 12:37:48;;;;;;;3.28;1.70;;;;;;;;;;4997976;28;20030;-86
2020/12/14 12:40:20;;;;;;;2.47;1.58;;;;;;;;;;4986060;28;20050;-84
2020/12/14 12:42:46;;;;;;;15.48;1.77;;;;;;;;;;4996229;28;20081;-85
2020/12/14 12:45:21;;;;;;;4.47;1.40;;;;;;;;;;5005327;28;20038;-85
2020/12/14 12:47:47;;;;;;;2.77;1.50;;;;;;;;;;5002094;28;20075;-84
2020/12/14 12:50:17;;;;;;;7.38;1.40;;;;;;;;;;4998273;28;20061;-84
2020/12/14 12:53:09;;;;;;;1.75;1.08;;;;;;;;;;5003416;28;20049;-85
2020/12/14 12:55:42;;;;;;;3.27;1.27;;;;;;;;;;5023527;28;20101;-82
2020/12/14 12:58:08;;;;;;;3.20;1.48;;;;;;;;;;4990145;28;20297;-85
2020/12/14 13:00:34;;;;;;;4.03;1.30;;;;;;;;;;4982814;28;20462;-87
2020/12/14 13:03:09;;;;;;;2.55;1.50;;;;;;;;;;4982465;28;20069;-87
2020/12/14 13:05:40;;;;;;;2.20;1.45;;;;;;;;;;5005696;28;20031;-86
2020/12/14 13:08:13;;;;;;;2.75;1.30;;;;;;;;;;5011511;28;20050;-85
2020/12/14 13:10:40;;;;;;;3.35;1.77;;;;;;;;;;4978357;28;20042;-85
2020/12/14 13:13:06;;;;;;;3.42;1.58;;;;;;;;;;4994133;28;20042;-83
2020/12/14 13:15:32;;;;;;;3.13;1.60;;;;;;;;;;4995740;28;20042;-85
2020/12/14 13:17:58;;;;;;;1.90;1.20;;;;;;;;;;4984151;28;20391;-85
2020/12/14 13:20:26;;;;;;;4.32;1.65;;;;;;;;;;4985340;28;20042;-87
2020/12/14 13:23:00;;;;;;;2.83;1.60;;;;;;;;;;4997264;28;20081;-86
2020/12/14 13:25:27;;;;;;;3.28;1.40;;;;;;;;;;4999181;28;20073;-86
2020/12/14 13:27:53;;;;;;;3.10;1.52;;;;;;;;;;5003599;28;20493;-87
2020/12/14 13:30:20;;;;;;;3.97;1.50;;;;;;;;;;4979252;28;20469;-87
2020/12/14 13:32:46;;;;;;;2.35;1.40;;;;;;;;;;4980407;28;20050;-87
2020/12/14 13:35:15;;;;;;;4.25;1.38;;;;;;;;;;4980120;28;20392;-85
2020/12/14 13:37:43;;;;;;;2.55;1.42;;;;;;;;;;4979330;28;20057;-85
2020/12/14 13:40:10;;;;;;;2.58;1.52;;;;;;;;;;4995497;28;20081;-85
2020/12/14 13:42:37;;;;;;;6.43;1.60;;;;;;;;;;4995089;28;20042;-85
2020/12/14 13:45:04;;;;;;;3.50;1.88;;;;;;;;;;4977440;28;20050;-85
2020/12/14 13:47:30;;;;;;;3.25;2.00;;;;;;;;;;4996691;28;20047;-83
2020/12/14 13:49:56;;;;;;;4.07;1.80;;;;;;;;;;5011975;28;20042;-83
2020/12/14 13:52:28;;;;;;;3.38;1.92;;;;;;;;;;4995256;28;20068;-86
2020/12/14 13:54:54;;;;;;;2.65;1.60;;;;;;;;;;4994124;28;20129;-86
2020/12/14 13:57:21;;;;;;;5.60;1.95;;;;;;;;;;4994209;28;20061;-87
2020/12/14 13:59:47;;;;;;;5.95;1.80;;;;;;;;;;4994393;28;20122;-86
2020/12/14 14:02:13;;;;;;;3.80;1.73;;;;;;;;;;4994128;28;20050;-85
2020/12/14 14:04:40;;;;;;;4.18;1.85;;;;;;;;;;4989642;28;20449;-85
2020/12/14 14:07:09;;;;;;;4.63;1.77;;;;;;;;;;5006053;28;20114;-82
2020/12/14 14:09:36;;;;;;;2.78;1.70;;;;;;;;;;4996903;28;20053;-85
2020/12/14 14:12:05;;;;;;;3.22;1.75;;;;;;;;;;4994739;28;20078;-82
2020/12/14 14:14:31;;;;;;;4.20;1.65;;;;;;;;;;4996878;28;20042;-85
2020/12/14 14:16:57;;;;;;;5.38;1.70;;;;;;;;;;4983406;28;20403;-83
2020/12/14 14:19:26;;;;;;;3.17;1.70;;;;;;;;;;4996680;28;20042;-84
2020/12/14 14:21:54;;;;;;;4.78;1.80;;;;;;;;;;4997529;28;20039;-82
2020/12/14 14:24:20;;;;;;;2.45;1.67;;;;;;;;;;4999929;28;20637;-86
2020/12/14 14:26:48;;;;;;;2.15;1.50;;;;;;;;;;4996330;28;20045;-83
2020/12/14 14:29:21;;;;;;;3.17;1.65;;;;;;;;;;5012930;28;20108;-83
2020/12/14 14:31:53;;;;;;;4.15;1.58;;;;;;;;;;4995737;28;20046;-82
2020/12/14 14:34:22;;;;;;;3.15;1.70;;;;;;;;;;4996961;28;20034;-83
2020/12/14 14:36:53;;;;;;;4.40;1.60;;;;;;;;;;4997452;28;20053;-83
2020/12/14 14:39:20;;;;;;;4.20;1.58;;;;;;;;;;4996782;28;20054;-83
2020/12/14 14:41:48;;;;;;;3.97;1.60;;;;;;;;;;4995415;28;20220;-83
2020/12/14 14:44:16;;;;;;;4.80;1.90;;;;;;;;;;4975675;28;20058;-83
2020/12/14 14:46:47;;;;;;;8.18;2.38;;;;;;;;;;4977299;28;20131;-84
2020/12/14 14:49:15;;;;;;;7.43;2.40;;;;;;;;;;4944211;28;20062;-84
2020/12/14 14:51:48;;;;;;;5.32;2.00;;;;;;;;;;4961013;28;20046;-85
2020/12/14 14:54:19;;;;;;;4.13;2.35;;;;;;;;;;4975402;28;20047;-82
2020/12/14 14:56:47;;;;;;;3.55;2.00;;;;;;;;;;4985082;28;20077;-83
2020/12/14 14:59:15;;;;;;;4.63;1.83;;;;;;;;;;4965296;28;20408;-83
2020/12/14 15:01:42;;;;;;;3.28;2.10;;;;;;;;;;4989934;28;20045;-83
2020/12/14 15:04:09;;;;;;;3.83;2.13;;;;;;;;;;4969171;28;20082;-83
2020/12/14 15:06:36;;;;;;;4.63;2.45;;;;;;;;;;4959048;28;20100;-83
2020/12/14 15:09:09;;;;;;;3.72;1.90;;;;;;;;;;4978210;28;20047;-83
2020/12/14 15:11:38;;;;;;;5.85;1.90;;;;;;;;;;5004348;28;20050;-84
2020/12/14 15:14:11;;;;;;;3.67;2.13;;;;;;;;;;4986179;28;20122;-84
2020/12/14 15:16:40;;;;;;;7.65;2.28;;;;;;;;;;4985307;28;20057;-84
2020/12/14 15:19:07;;;;;;;6.22;2.65;;;;;;;;;;4982499;28;20169;-83
2020/12/14 15:21:37;;;;;;;5.93;2.97;;;;;;;;;;4985546;28;20043;-83
2020/12/14 15:24:05;;;;;;;6.65;2.97;;;;;;;;;;5012214;28;20030;-84
2020/12/14 15:26:31;;;;;;;11.10;3.50;;;;;;;;;;5006908;28;20073;-84
2020/12/14 15:28:57;;;;;;;8.93;3.42;;;;;;;;;;5002294;28;20034;-84
2020/12/14 15:31:23;;;;;;;6.95;3.55;;;;;;;;;;5003919;28;20039;-82
2020/12/14 15:33:53;;;;;;;10.65;4.45;;;;;;;;;;5014115;28;20034;-87
2020/12/14 15:36:31;;;;;;;9.40;4.40;;;;;;;;;;4998900;28;20040;-87
2020/12/14 15:39:01;;;;;;;9.48;4.20;;;;;;;;;;4998432;28;20062;-87
2020/12/14 15:41:38;;;;;;;7.47;3.83;;;;;;;;;;4997686;28;20054;-86
2020/12/14 15:44:06;;;;;;;9.00;4.40;;;;;;;;;;5012198;28;20042;-85
2020/12/14 15:46:55;;;;;;;10.35;4.45;;;;;;;;;;5009732;28;20250;-87
2020/12/14 15:49:26;;;;;;;9.48;4.22;;;;;;;;;;4997750;28;20070;-85
2020/12/14 15:52:12;;;;;;;8.95;4.50;;;;;;;;;;4982901;28;20097;-86
2020/12/14 15:54:40;;;;;;;14.27;4.50;;;;;;;;;;5011492;28;20038;-84
2020/12/14 15:57:08;;;;;;;10.43;4.63;;;;;;;;;;4997401;28;20038;-84
2020/12/14 15:59:43;;;;;;;12.90;4.88;;;;;;;;;;5013541;28;20046;-82
2020/12/14 16:02:13;;;;;;;12.15;4.28;;;;;;;;;;4998254;28;20102;-84
2020/12/14 16:05:02;;;;;;;9.43;5.10;;;;;;;;;;4997666;28;20265;-83
2020/12/14 16:08:36;;;;;;;9.35;4.35;;;;;;;;;;5009225;28;20057;-83
2020/12/14 16:11:02;;;;;;;10.65;5.28;;;;;;;;;;4961236;28;20042;-86
2020/12/14 16:13:29;;;;;;;8.68;4.72;;;;;;;;;;5008280;28;20060;-85
2020/12/14 16:15:55;;;;;;;11.60;5.05;;;;;;;;;;4998936;28;20035;-87
2020/12/14 16:18:35;;;;;;;10.27;5.07;;;;;;;;;;4994048;28;20102;-87
2020/12/14 16:21:02;;;;;;;7.43;4.40;;;;;;;;;;4970871;28;20042;-84
2020/12/14 16:23:29;;;;;;;9.48;5.00;;;;;;;;;;4972483;28;20039;-88
2020/12/14 16:25:59;;;;;;;8.20;4.68;;;;;;;;;;4995198;28;20046;-86
2020/12/14 16:28:25;;;;;;;9.55;4.72;;;;;;;;;;4997880;28;20064;-86
2020/12/14 16:30:51;;;;;;;8.55;4.97;;;;;;;;;;4996731;28;20498;-86
2020/12/14 16:33:17;;;;;;;11.18;5.32;;;;;;;;;;4997403;28;20223;-87
2020/12/14 16:35:47;;;;;;;11.00;4.88;;;;;;;;;;4996583;28;20142;-86
2020/12/14 16:38:15;;;;;;;8.60;4.78;;;;;;;;;;4996591;28;20485;-88
2020/12/14 16:40:44;;;;;;;9.27;5.18;;;;;;;;;;4986946;28;20035;-86
2020/12/14 16:43:15;;;;;;;15.02;5.55;;;;;;;;;;4978470;28;20030;-87
2020/12/14 16:46:06;;;;;;;11.35;6.00;;;;;;;;;;4993109;28;20069;-84
2020/12/14 16:48:51;;;;;;;14.20;6.75;;;;;;;;;;4989104;28;20042;-86
2020/12/14 16:51:18;;;;;;;11.43;5.45;;;;;;;;;;4999949;28;20077;-85
2020/12/14 16:53:46;;;;;;;10.15;5.32;;;;;;;;;;4980912;28;20149;-86
2020/12/14 16:56:12;;;;;;;10.27;5.18;;;;;;;;;;4996787;28;20121;-85
2020/12/14 16:58:46;;;;;;;10.10;5.32;;;;;;;;;;4980776;28;20058;-86
2020/12/14 17:01:18;;;;;;;9.82;4.97;;;;;;;;;;4996095;28;20267;-83
2020/12/14 17:03:58;;;;;;;9.68;5.18;;;;;;;;;;4989462;28;20042;-86
2020/12/14 17:06:26;;;;;;;15.00;5.47;;;;;;;;;;4979605;28;20040;-85
2020/12/14 17:08:57;;;;;;;9.93;5.28;;;;;;;;;;4979792;28;20057;-86
2020/12/14 17:11:25;;;;;;;13.23;5.65;;;;;;;;;;4979321;28;20054;-86
2020/12/14 17:13:51;;;;;;;10.70;5.63;;;;;;;;;;4999789;28;20053;-85
2020/12/14 17:16:20;;;;;;;9.73;5.32;;;;;;;;;;4997166;28;20097;-88
2020/12/14 17:18:46;;;;;;;12.30;5.50;;;;;;;;;;5003929;28;20482;-84
2020/12/14 17:21:14;;;;;;;10.60;5.25;;;;;;;;;;4972216;28;20085;-85
2020/12/14 17:23:40;;;;;;;10.55;5.57;;;;;;;;;;4976282;28;20153;-86
2020/12/14 17:26:35;;;;;;;14.05;5.85;;;;;;;;;;4994278;28;20217;-87
2020/12/14 17:29:41;;;;;;;10.05;5.95;;;;;;;;;;4971787;28;20042;-86
2020/12/14 17:32:22;;;;;;;12.75;6.57;;;;;;;;;;4994678;28;20133;-86
2020/12/14 17:34:52;;;;;;;12.73;6.50;;;;;;;;;;4978881;28;20061;-86
2020/12/14 17:37:26;;;;;;;13.93;6.60;;;;;;;;;;4977416;28;20046;-84
2020/12/14 17:39:53;;;;;;;11.63;6.22;;;;;;;;;;4978923;28;20054;-86
2020/12/14 17:42:25;;;;;;;11.95;6.40;;;;;;;;;;4987232;28;20502;-83
2020/12/14 17:45:30;;;;;;;;;;;;;;;;;;;;;
2020/12/14 17:48:49;;;;;;;;;;;;;;;;;;5006722;28;20030;-84
2020/12/14 17:51:32;;;;;;;10.25;5.85;;;;;;;;;;4976138;28;19956;-84
2020/12/14 17:54:10;;;;;;;10.27;6.60;;;;;;;;;;4966461;23;20046;-82
2020/12/14 17:56:37;;;;;;;14.35;6.63;;;;;;;;;;4983192;28;20035;-83
2020/12/14 17:59:04;;;;;;;11.38;6.63;;;;;;;;;;4971394;28;20042;-82